Share

Ellis, KS

Rural Ellis Co. (KKSHAYS15) Elev 2119 ft | 38.81 °N, 99.37 °W | Change Station

Current weather conditions updated 9 minutes ago

Clear
Clear
37.8 °F
Feels Like 29 °F
N
15.5
Wind Variable Wind from NNE
Sunrise 6:58 AM
Sunset 8:17 PM
Moon Waning Gibbous

Today is forecast to be Much Cooler than yesterday.

Pressure 30.19 in
Visibility 10.0 miles
Clouds Clear
Windchill 29 °F
Dew Point 31 °F
Humidity 75%
Rainfall 0.00 in
Snow Depth Not available.
UV 0 out of 16
Pollen 10.90 out of 12
Air Quality Not available.
Flu Activity Sporadic
METAR KHYS 170715Z AUTO 01013G18KT 10SM CLR 03/M03 A3019 RMK AO1

More Conditions Fewer Conditions

Pressure 30.19 in
Visibility 10.0 miles
Clouds Clear
Windchill 29 °F
Dew Point 31 °F
Humidity 75%
Rainfall 0.00 in
Snow Depth Not available.
UV 0 out of 16
Pollen 10.90 out of 12
Air Quality Not available.
Flu Activity Sporadic
METAR KHYS 170715Z AUTO 01013G18KT 10SM CLR 03/M03 A3019 RMK AO1

More Conditions Fewer Conditions

10-Day Forecast

Almanac

Astronomy

Apr. 17, 2014 Rise Set
Actual Time 6:58 AM CDT 8:17 PM CDT
Civil Twilight 6:31 AM CDT 8:45 PM CDT
Nautical Twilight 5:57 AM CDT 9:18 PM CDT
Astronomical Twilight 5:23 AM CDT 9:53 PM CDT
Moon 11:03 PM CDT 8:32 AM CDT
Length of Visible Light 14h 14m
Length of Day
13h 18m
Tomorrow will be 2m 24s longer.
Waning Gibbous, 95% of the Moon is Illuminated
Today
Waning Gibbous
Apr 22
Last Quarter
Apr 29
New
May 6
First Quarter
May 14
Full

Today's Extremes

State Highs State Lows

Community

  • Sunset over the Bay
    Sunset over the Bay
  • symphony in blue....
    symphony in blue....
  • Dawn Surprise
    Dawn Surprise
  • Yucca delight
    Yucca delight
  • Sunset inside of the Ocean
    Sunset inside of the Ocean

WunderPhotos

Upload Photos

1,701,875 photos uploaded!

WunderBlogs® & News

Nearby

Snow Depth

Station Depth Elevation
No new snow has been reported.

Coastal Water Temperatures

Place Temperature
No Stations Reporting

Earthquake Activity

City Distance Mag. Time & Date
No recent earthquake activity has been reported nearby.
Minimum magnitude displayed is 2.5.

Nearby Weather Stations

Station Location Temp. Windchill Dew Point Humidity Wind Precip. Elev Updated Type
MesoWest YOCEME , Hays, KS 39 °F 39 °F - - North  at  - 0.00 in / hr 2047 ft 1:20 AM CDT MADIS
Rural Ellis Co., Hays, KS 37.8 °F 29 °F 31 °F 75% NNE  at  15.5 mph - / hr 2119 ft 2:21 AM CDT Normal
Hays Kansas Weather, Hays, KS 36.2 °F 30 °F 28 °F 73% NE  at  8.1 mph 0.00 in / hr 2070 ft 2:30 AM CDT Rapid Fire
WaKeeney East Side, WaKeeney, KS 36.7 °F 37 °F 27 °F 67% North  at  0.0 mph 0.00 in / hr 2461 ft 2:25 AM CDT Normal
Plainville Elementary, Plainville, KS 34.0 °F 26 °F 28 °F 78% North  at  10.7 mph 0.00 in / hr 2165 ft 2:30 AM CDT Rapid Fire

Show More Stations Show Fewer Stations

What do you think?

We're not finished. Please let us know what you like, what you don't like, and what you are still missing.